KHAI

Three Rivers Municipal Dr Haines Airport

Three Rivers, Michigan, USA
METAR KHAI 171437Z AUTO 32005KT 10SM CLR 02/M03 A3011 RMK AO2 T00201027
Observed Flight Rules
Dec-17 @ 14:37 UTC (17 minutes ago) Visual Flight Rules
Wind Visibility Clouds
320° at 5 knots 10 miles
  • Clear skies
Temperatures Readings
Current 2°C / 36°F
Dewpoint -3°C / 27°F
Humidity 70%
Altimeter 30.11" Hg
Pressure 1020 hPa
Elevation 251
METAR KHAI 171437Z AUTO 32005KT 10SM CLR 02/M03 A3011 RMK AO2 T00201027
Observed Flight Rules
Dec-17 @ 14:37 UTC
(17 minutes ago)
VFR
Wind Visibility
320° at 5 knots 10 miles
Clouds
  • Clear skies
Temperature Dewpoint
2°C / 36°F -3°C / 27°F
Humidity Altimeter Pressure
70% 30.11" Hg 1020 hPa